sensor_id;sensor_type;location;lat;lon;timestamp;P1;durP1;ratioP1;P2;durP2;ratioP2
37931;SDS011;23758;42.640;23.302;2023-12-14T00:01:53;3.17;;;2.97;;
37931;SDS011;23758;42.640;23.302;2023-12-14T00:04:18;3.00;;;2.80;;
37931;SDS011;23758;42.640;23.302;2023-12-14T00:06:44;3.13;;;2.92;;
37931;SDS011;23758;42.640;23.302;2023-12-14T00:09:09;3.20;;;3.00;;
37931;SDS011;23758;42.640;23.302;2023-12-14T00:11:38;3.10;;;2.90;;
37931;SDS011;23758;42.640;23.302;2023-12-14T00:14:04;2.80;;;2.60;;
37931;SDS011;23758;42.640;23.302;2023-12-14T00:16:30;3.00;;;2.80;;
37931;SDS011;23758;42.640;23.302;2023-12-14T00:18:55;3.17;;;2.97;;
37931;SDS011;23758;42.640;23.302;2023-12-14T00:21:21;3.03;;;2.83;;
37931;SDS011;23758;42.640;23.302;2023-12-14T00:23:46;3.10;;;2.90;;
37931;SDS011;23758;42.640;23.302;2023-12-14T00:26:11;3.00;;;2.80;;
37931;SDS011;23758;42.640;23.302;2023-12-14T00:28:37;2.95;;;2.75;;
37931;SDS011;23758;42.640;23.302;2023-12-14T00:31:03;3.00;;;2.80;;
37931;SDS011;23758;42.640;23.302;2023-12-14T00:33:29;3.22;;;3.03;;
37931;SDS011;23758;42.640;23.302;2023-12-14T00:35:54;2.85;;;2.65;;
37931;SDS011;23758;42.640;23.302;2023-12-14T00:38:19;3.03;;;2.83;;
37931;SDS011;23758;42.640;23.302;2023-12-14T00:40:45;3.10;;;2.90;;
37931;SDS011;23758;42.640;23.302;2023-12-14T00:43:10;3.00;;;2.80;;
37931;SDS011;23758;42.640;23.302;2023-12-14T00:45:36;3.30;;;3.10;;
37931;SDS011;23758;42.640;23.302;2023-12-14T00:48:01;3.10;;;2.90;;
37931;SDS011;23758;42.640;23.302;2023-12-14T00:50:27;3.28;;;3.08;;
37931;SDS011;23758;42.640;23.302;2023-12-14T00:52:52;2.90;;;2.70;;
37931;SDS011;23758;42.640;23.302;2023-12-14T00:55:17;2.95;;;2.75;;
37931;SDS011;23758;42.640;23.302;2023-12-14T00:57:43;3.00;;;2.80;;
37931;SDS011;23758;42.640;23.302;2023-12-14T01:00:08;3.42;;;3.22;;
37931;SDS011;23758;42.640;23.302;2023-12-14T01:02:35;3.47;;;3.20;;
37931;SDS011;23758;42.640;23.302;2023-12-14T01:05:01;3.70;;;3.40;;
37931;SDS011;23758;42.640;23.302;2023-12-14T01:07:26;2.80;;;2.60;;
37931;SDS011;23758;42.640;23.302;2023-12-14T01:09:52;2.90;;;2.70;;
37931;SDS011;23758;42.640;23.302;2023-12-14T01:12:17;3.00;;;2.80;;
37931;SDS011;23758;42.640;23.302;2023-12-14T01:14:43;2.83;;;2.63;;
37931;SDS011;23758;42.640;23.302;2023-12-14T01:17:08;2.90;;;2.70;;
37931;SDS011;23758;42.640;23.302;2023-12-14T01:19:34;2.88;;;2.67;;
37931;SDS011;23758;42.640;23.302;2023-12-14T01:21:59;2.88;;;2.67;;
37931;SDS011;23758;42.640;23.302;2023-12-14T01:24:25;3.00;;;2.80;;
37931;SDS011;23758;42.640;23.302;2023-12-14T01:26:50;3.20;;;2.90;;
37931;SDS011;23758;42.640;23.302;2023-12-14T01:29:16;2.90;;;2.70;;
37931;SDS011;23758;42.640;23.302;2023-12-14T01:31:41;3.03;;;2.83;;
37931;SDS011;23758;42.640;23.302;2023-12-14T01:34:06;3.20;;;2.95;;
37931;SDS011;23758;42.640;23.302;2023-12-14T01:36:32;2.88;;;2.67;;
37931;SDS011;23758;42.640;23.302;2023-12-14T01:38:57;3.30;;;3.00;;
37931;SDS011;23758;42.640;23.302;2023-12-14T01:41:23;2.90;;;2.70;;
37931;SDS011;23758;42.640;23.302;2023-12-14T01:43:48;3.10;;;2.90;;
37931;SDS011;23758;42.640;23.302;2023-12-14T01:46:13;2.90;;;2.70;;
37931;SDS011;23758;42.640;23.302;2023-12-14T01:48:41;3.65;;;3.45;;
37931;SDS011;23758;42.640;23.302;2023-12-14T01:51:06;2.80;;;2.60;;
37931;SDS011;23758;42.640;23.302;2023-12-14T01:53:32;3.40;;;3.13;;
37931;SDS011;23758;42.640;23.302;2023-12-14T01:55:57;2.90;;;2.70;;
37931;SDS011;23758;42.640;23.302;2023-12-14T01:58:23;3.10;;;2.90;;
37931;SDS011;23758;42.640;23.302;2023-12-14T02:01:17;3.40;;;3.13;;
37931;SDS011;23758;42.640;23.302;2023-12-14T02:03:48;3.00;;;2.80;;
37931;SDS011;23758;42.640;23.302;2023-12-14T02:06:15;2.95;;;2.75;;
37931;SDS011;23758;42.640;23.302;2023-12-14T02:08:41;3.05;;;2.85;;
37931;SDS011;23758;42.640;23.302;2023-12-14T02:11:06;3.30;;;3.10;;
37931;SDS011;23758;42.640;23.302;2023-12-14T02:13:32;3.20;;;3.00;;
37931;SDS011;23758;42.640;23.302;2023-12-14T02:15:57;3.00;;;2.80;;
37931;SDS011;23758;42.640;23.302;2023-12-14T02:18:23;3.35;;;3.05;;
37931;SDS011;23758;42.640;23.302;2023-12-14T02:20:48;2.90;;;2.70;;
37931;SDS011;23758;42.640;23.302;2023-12-14T02:23:14;3.00;;;2.80;;
37931;SDS011;23758;42.640;23.302;2023-12-14T02:25:39;2.88;;;2.67;;
37931;SDS011;23758;42.640;23.302;2023-12-14T02:28:04;3.15;;;2.95;;
37931;SDS011;23758;42.640;23.302;2023-12-14T02:30:30;2.90;;;2.70;;
37931;SDS011;23758;42.640;23.302;2023-12-14T02:32:55;3.10;;;2.90;;
37931;SDS011;23758;42.640;23.302;2023-12-14T02:35:21;2.90;;;2.70;;
37931;SDS011;23758;42.640;23.302;2023-12-14T02:37:47;2.70;;;2.50;;
37931;SDS011;23758;42.640;23.302;2023-12-14T02:40:13;2.80;;;2.60;;
37931;SDS011;23758;42.640;23.302;2023-12-14T02:42:38;2.67;;;2.50;;
37931;SDS011;23758;42.640;23.302;2023-12-14T02:45:04;3.13;;;2.88;;
37931;SDS011;23758;42.640;23.302;2023-12-14T02:47:31;2.83;;;2.63;;
37931;SDS011;23758;42.640;23.302;2023-12-14T02:49:56;2.90;;;2.70;;
37931;SDS011;23758;42.640;23.302;2023-12-14T02:52:22;3.38;;;3.08;;
37931;SDS011;23758;42.640;23.302;2023-12-14T02:54:47;2.95;;;2.75;;
37931;SDS011;23758;42.640;23.302;2023-12-14T02:57:13;3.30;;;3.10;;
37931;SDS011;23758;42.640;23.302;2023-12-14T02:59:39;2.83;;;2.63;;
37931;SDS011;23758;42.640;23.302;2023-12-14T03:02:04;3.03;;;2.83;;
37931;SDS011;23758;42.640;23.302;2023-12-14T03:04:30;2.85;;;2.65;;
37931;SDS011;23758;42.640;23.302;2023-12-14T03:06:55;2.92;;;2.72;;
37931;SDS011;23758;42.640;23.302;2023-12-14T03:09:21;2.70;;;2.50;;
37931;SDS011;23758;42.640;23.302;2023-12-14T03:11:46;2.80;;;2.60;;
37931;SDS011;23758;42.640;23.302;2023-12-14T03:14:12;2.67;;;2.47;;
37931;SDS011;23758;42.640;23.302;2023-12-14T03:16:38;2.95;;;2.75;;
37931;SDS011;23758;42.640;23.302;2023-12-14T03:19:03;2.55;;;2.40;;
37931;SDS011;23758;42.640;23.302;2023-12-14T03:21:29;2.80;;;2.60;;
37931;SDS011;23758;42.640;23.302;2023-12-14T03:23:54;3.08;;;2.88;;
37931;SDS011;23758;42.640;23.302;2023-12-14T03:26:20;2.70;;;2.50;;
37931;SDS011;23758;42.640;23.302;2023-12-14T03:28:45;2.70;;;2.50;;
37931;SDS011;23758;42.640;23.302;2023-12-14T03:31:11;2.90;;;2.70;;
37931;SDS011;23758;42.640;23.302;2023-12-14T03:33:37;2.80;;;2.60;;
37931;SDS011;23758;42.640;23.302;2023-12-14T03:36:04;2.70;;;2.50;;
37931;SDS011;23758;42.640;23.302;2023-12-14T03:38:29;2.70;;;2.50;;
37931;SDS011;23758;42.640;23.302;2023-12-14T03:40:55;2.80;;;2.60;;
37931;SDS011;23758;42.640;23.302;2023-12-14T03:43:20;3.00;;;2.80;;
37931;SDS011;23758;42.640;23.302;2023-12-14T03:45:46;2.72;;;2.58;;
37931;SDS011;23758;42.640;23.302;2023-12-14T03:48:11;2.65;;;2.45;;
37931;SDS011;23758;42.640;23.302;2023-12-14T03:50:37;2.72;;;2.53;;
37931;SDS011;23758;42.640;23.302;2023-12-14T03:53:02;2.65;;;2.45;;
37931;SDS011;23758;42.640;23.302;2023-12-14T03:55:28;2.92;;;2.72;;
37931;SDS011;23758;42.640;23.302;2023-12-14T03:57:53;3.05;;;2.85;;
37931;SDS011;23758;42.640;23.302;2023-12-14T04:00:19;2.80;;;2.60;;
37931;SDS011;23758;42.640;23.302;2023-12-14T04:02:44;2.70;;;2.50;;
37931;SDS011;23758;42.640;23.302;2023-12-14T04:05:09;2.70;;;2.50;;
37931;SDS011;23758;42.640;23.302;2023-12-14T04:07:38;2.90;;;2.70;;
37931;SDS011;23758;42.640;23.302;2023-12-14T04:10:07;3.17;;;2.97;;
37931;SDS011;23758;42.640;23.302;2023-12-14T04:12:34;2.88;;;2.67;;
37931;SDS011;23758;42.640;23.302;2023-12-14T04:15:00;2.97;;;2.78;;
37931;SDS011;23758;42.640;23.302;2023-12-14T04:17:26;2.70;;;2.50;;
37931;SDS011;23758;42.640;23.302;2023-12-14T04:19:51;2.70;;;2.50;;
37931;SDS011;23758;42.640;23.302;2023-12-14T04:22:17;3.00;;;2.80;;
37931;SDS011;23758;42.640;23.302;2023-12-14T04:24:42;2.70;;;2.50;;
37931;SDS011;23758;42.640;23.302;2023-12-14T04:27:07;2.80;;;2.60;;
37931;SDS011;23758;42.640;23.302;2023-12-14T04:29:33;2.50;;;2.40;;
37931;SDS011;23758;42.640;23.302;2023-12-14T04:31:58;2.75;;;2.55;;
37931;SDS011;23758;42.640;23.302;2023-12-14T04:34:24;2.90;;;2.70;;
37931;SDS011;23758;42.640;23.302;2023-12-14T04:36:49;2.70;;;2.50;;
37931;SDS011;23758;42.640;23.302;2023-12-14T04:39:15;2.70;;;2.50;;
37931;SDS011;23758;42.640;23.302;2023-12-14T04:41:41;2.80;;;2.60;;
37931;SDS011;23758;42.640;23.302;2023-12-14T04:44:07;2.90;;;2.70;;
37931;SDS011;23758;42.640;23.302;2023-12-14T04:46:35;2.80;;;2.60;;
37931;SDS011;23758;42.640;23.302;2023-12-14T04:49:00;2.80;;;2.60;;
37931;SDS011;23758;42.640;23.302;2023-12-14T04:51:26;2.80;;;2.60;;
37931;SDS011;23758;42.640;23.302;2023-12-14T04:53:51;2.90;;;2.70;;
37931;SDS011;23758;42.640;23.302;2023-12-14T04:56:17;2.80;;;2.60;;
37931;SDS011;23758;42.640;23.302;2023-12-14T04:58:42;2.90;;;2.70;;
37931;SDS011;23758;42.640;23.302;2023-12-14T05:01:07;2.75;;;2.55;;
37931;SDS011;23758;42.640;23.302;2023-12-14T05:03:34;2.90;;;2.70;;
37931;SDS011;23758;42.640;23.302;2023-12-14T05:06:00;2.80;;;2.60;;
37931;SDS011;23758;42.640;23.302;2023-12-14T05:08:25;3.08;;;2.88;;
37931;SDS011;23758;42.640;23.302;2023-12-14T05:10:51;3.17;;;2.88;;
37931;SDS011;23758;42.640;23.302;2023-12-14T05:13:16;2.90;;;2.70;;
37931;SDS011;23758;42.640;23.302;2023-12-14T05:15:42;2.80;;;2.60;;
37931;SDS011;23758;42.640;23.302;2023-12-14T05:18:07;2.83;;;2.63;;
37931;SDS011;23758;42.640;23.302;2023-12-14T05:20:33;2.70;;;2.50;;
37931;SDS011;23758;42.640;23.302;2023-12-14T05:22:59;3.55;;;3.25;;
37931;SDS011;23758;42.640;23.302;2023-12-14T05:25:25;2.78;;;2.58;;
37931;SDS011;23758;42.640;23.302;2023-12-14T05:27:50;2.80;;;2.60;;
37931;SDS011;23758;42.640;23.302;2023-12-14T05:30:16;2.90;;;2.70;;
37931;SDS011;23758;42.640;23.302;2023-12-14T05:32:41;2.90;;;2.70;;
37931;SDS011;23758;42.640;23.302;2023-12-14T05:35:07;2.80;;;2.60;;
37931;SDS011;23758;42.640;23.302;2023-12-14T05:37:34;2.70;;;2.50;;
37931;SDS011;23758;42.640;23.302;2023-12-14T05:40:00;2.70;;;2.50;;
37931;SDS011;23758;42.640;23.302;2023-12-14T05:42:26;3.08;;;2.88;;
37931;SDS011;23758;42.640;23.302;2023-12-14T05:44:51;2.80;;;2.60;;
37931;SDS011;23758;42.640;23.302;2023-12-14T05:47:17;2.88;;;2.67;;
37931;SDS011;23758;42.640;23.302;2023-12-14T05:49:43;2.80;;;2.60;;
37931;SDS011;23758;42.640;23.302;2023-12-14T05:52:08;2.80;;;2.60;;
37931;SDS011;23758;42.640;23.302;2023-12-14T05:54:37;2.70;;;2.50;;
37931;SDS011;23758;42.640;23.302;2023-12-14T05:57:04;2.70;;;2.50;;
37931;SDS011;23758;42.640;23.302;2023-12-14T05:59:30;2.58;;;2.40;;
37931;SDS011;23758;42.640;23.302;2023-12-14T06:01:56;2.75;;;2.55;;
37931;SDS011;23758;42.640;23.302;2023-12-14T06:04:22;2.50;;;2.40;;
37931;SDS011;23758;42.640;23.302;2023-12-14T06:06:48;2.80;;;2.60;;
37931;SDS011;23758;42.640;23.302;2023-12-14T06:09:13;2.55;;;2.45;;
37931;SDS011;23758;42.640;23.302;2023-12-14T06:11:39;2.60;;;2.40;;
37931;SDS011;23758;42.640;23.302;2023-12-14T06:14:04;2.50;;;2.40;;
37931;SDS011;23758;42.640;23.302;2023-12-14T06:16:30;2.72;;;2.53;;
37931;SDS011;23758;42.640;23.302;2023-12-14T06:18:55;2.72;;;2.53;;
37931;SDS011;23758;42.640;23.302;2023-12-14T06:21:21;2.80;;;2.60;;
37931;SDS011;23758;42.640;23.302;2023-12-14T06:23:46;2.83;;;2.63;;
37931;SDS011;23758;42.640;23.302;2023-12-14T06:26:12;2.40;;;2.30;;
37931;SDS011;23758;42.640;23.302;2023-12-14T06:28:37;2.55;;;2.40;;
37931;SDS011;23758;42.640;23.302;2023-12-14T06:31:03;2.70;;;2.50;;
37931;SDS011;23758;42.640;23.302;2023-12-14T06:33:29;2.88;;;2.67;;
37931;SDS011;23758;42.640;23.302;2023-12-14T06:35:56;2.50;;;2.40;;
37931;SDS011;23758;42.640;23.302;2023-12-14T06:38:21;2.70;;;2.50;;
37931;SDS011;23758;42.640;23.302;2023-12-14T06:40:47;2.65;;;2.45;;
37931;SDS011;23758;42.640;23.302;2023-12-14T06:43:12;2.70;;;2.50;;
37931;SDS011;23758;42.640;23.302;2023-12-14T06:45:38;2.80;;;2.60;;
37931;SDS011;23758;42.640;23.302;2023-12-14T06:48:03;2.50;;;2.40;;
37931;SDS011;23758;42.640;23.302;2023-12-14T06:50:29;2.58;;;2.45;;
37931;SDS011;23758;42.640;23.302;2023-12-14T06:52:54;2.65;;;2.45;;
37931;SDS011;23758;42.640;23.302;2023-12-14T06:55:20;2.40;;;2.30;;
37931;SDS011;23758;42.640;23.302;2023-12-14T06:57:45;2.90;;;2.70;;
37931;SDS011;23758;42.640;23.302;2023-12-14T07:00:12;2.30;;;2.20;;
37931;SDS011;23758;42.640;23.302;2023-12-14T07:02:38;2.60;;;2.40;;
37931;SDS011;23758;42.640;23.302;2023-12-14T07:05:04;2.50;;;2.40;;
37931;SDS011;23758;42.640;23.302;2023-12-14T07:07:29;2.50;;;2.40;;
37931;SDS011;23758;42.640;23.302;2023-12-14T07:09:55;2.40;;;2.30;;
37931;SDS011;23758;42.640;23.302;2023-12-14T07:12:20;2.50;;;2.40;;
37931;SDS011;23758;42.640;23.302;2023-12-14T07:14:46;2.60;;;2.42;;
37931;SDS011;23758;42.640;23.302;2023-12-14T07:17:11;2.70;;;2.50;;
37931;SDS011;23758;42.640;23.302;2023-12-14T07:19:37;2.42;;;2.33;;
37931;SDS011;23758;42.640;23.302;2023-12-14T07:22:02;2.75;;;2.55;;
37931;SDS011;23758;42.640;23.302;2023-12-14T07:24:28;2.40;;;2.30;;
37931;SDS011;23758;42.640;23.302;2023-12-14T07:26:53;2.30;;;2.20;;
37931;SDS011;23758;42.640;23.302;2023-12-14T07:29:19;2.67;;;2.47;;
37931;SDS011;23758;42.640;23.302;2023-12-14T07:31:45;2.30;;;2.20;;
37931;SDS011;23758;42.640;23.302;2023-12-14T07:34:10;2.70;;;2.50;;
37931;SDS011;23758;42.640;23.302;2023-12-14T07:36:36;2.30;;;2.20;;
37931;SDS011;23758;42.640;23.302;2023-12-14T07:39:02;2.80;;;2.60;;
37931;SDS011;23758;42.640;23.302;2023-12-14T07:41:28;2.55;;;2.38;;
37931;SDS011;23758;42.640;23.302;2023-12-14T07:44:00;2.60;;;2.40;;
37931;SDS011;23758;42.640;23.302;2023-12-14T07:46:25;2.50;;;2.40;;
37931;SDS011;23758;42.640;23.302;2023-12-14T07:48:51;2.30;;;2.20;;
37931;SDS011;23758;42.640;23.302;2023-12-14T07:54:00;2.70;;;2.50;;
37931;SDS011;23758;42.640;23.302;2023-12-14T07:56:28;2.47;;;2.38;;
37931;SDS011;23758;42.640;23.302;2023-12-14T07:58:53;2.47;;;2.38;;
37931;SDS011;23758;42.640;23.302;2023-12-14T08:01:19;2.50;;;2.30;;
37931;SDS011;23758;42.640;23.302;2023-12-14T08:03:45;12.32;;;2.90;;
37931;SDS011;23758;42.640;23.302;2023-12-14T08:06:12;2.30;;;2.20;;
37931;SDS011;23758;42.640;23.302;2023-12-14T08:08:37;2.40;;;2.20;;
37931;SDS011;23758;42.640;23.302;2023-12-14T08:11:06;2.20;;;2.10;;
37931;SDS011;23758;42.640;23.302;2023-12-14T08:13:31;2.13;;;2.03;;
37931;SDS011;23758;42.640;23.302;2023-12-14T08:15:57;2.50;;;2.30;;
37931;SDS011;23758;42.640;23.302;2023-12-14T08:18:22;2.25;;;2.15;;
37931;SDS011;23758;42.640;23.302;2023-12-14T08:20:48;2.30;;;2.20;;
37931;SDS011;23758;42.640;23.302;2023-12-14T08:23:13;2.30;;;2.20;;
37931;SDS011;23758;42.640;23.302;2023-12-14T08:25:39;2.65;;;2.45;;
37931;SDS011;23758;42.640;23.302;2023-12-14T08:28:04;2.40;;;2.30;;
37931;SDS011;23758;42.640;23.302;2023-12-14T08:30:30;2.30;;;2.20;;
37931;SDS011;23758;42.640;23.302;2023-12-14T08:32:55;2.40;;;2.30;;
37931;SDS011;23758;42.640;23.302;2023-12-14T08:35:21;2.30;;;2.20;;
37931;SDS011;23758;42.640;23.302;2023-12-14T08:37:46;2.95;;;2.70;;
37931;SDS011;23758;42.640;23.302;2023-12-14T08:40:12;2.40;;;2.30;;
37931;SDS011;23758;42.640;23.302;2023-12-14T08:42:37;2.40;;;2.30;;
37931;SDS011;23758;42.640;23.302;2023-12-14T08:45:03;2.47;;;2.38;;
37931;SDS011;23758;42.640;23.302;2023-12-14T08:47:29;2.33;;;2.22;;
37931;SDS011;23758;42.640;23.302;2023-12-14T08:49:54;2.70;;;2.40;;
37931;SDS011;23758;42.640;23.302;2023-12-14T08:52:20;2.40;;;2.30;;
37931;SDS011;23758;42.640;23.302;2023-12-14T08:54:45;9.95;;;2.67;;
37931;SDS011;23758;42.640;23.302;2023-12-14T08:57:11;2.40;;;2.30;;
37931;SDS011;23758;42.640;23.302;2023-12-14T08:59:36;2.42;;;2.33;;
37931;SDS011;23758;42.640;23.302;2023-12-14T09:02:02;2.20;;;2.10;;
37931;SDS011;23758;42.640;23.302;2023-12-14T09:04:28;2.40;;;2.30;;
37931;SDS011;23758;42.640;23.302;2023-12-14T09:06:53;2.15;;;2.05;;
37931;SDS011;23758;42.640;23.302;2023-12-14T09:09:19;2.30;;;2.20;;
37931;SDS011;23758;42.640;23.302;2023-12-14T09:11:44;2.30;;;2.20;;
37931;SDS011;23758;42.640;23.302;2023-12-14T09:14:10;2.10;;;2.00;;
37931;SDS011;23758;42.640;23.302;2023-12-14T09:16:35;3.05;;;2.20;;
37931;SDS011;23758;42.640;23.302;2023-12-14T09:19:01;2.20;;;2.10;;
37931;SDS011;23758;42.640;23.302;2023-12-14T09:21:26;2.25;;;2.15;;
37931;SDS011;23758;42.640;23.302;2023-12-14T09:23:52;2.00;;;1.90;;
37931;SDS011;23758;42.640;23.302;2023-12-14T09:26:20;2.85;;;2.15;;
37931;SDS011;23758;42.640;23.302;2023-12-14T09:28:45;2.53;;;2.33;;
37931;SDS011;23758;42.640;23.302;2023-12-14T09:31:11;2.13;;;2.03;;
37931;SDS011;23758;42.640;23.302;2023-12-14T09:33:36;2.33;;;2.22;;
37931;SDS011;23758;42.640;23.302;2023-12-14T09:36:02;2.13;;;2.00;;
37931;SDS011;23758;42.640;23.302;2023-12-14T09:38:28;1.92;;;1.83;;
37931;SDS011;23758;42.640;23.302;2023-12-14T09:40:53;2.15;;;2.05;;
37931;SDS011;23758;42.640;23.302;2023-12-14T09:43:19;2.17;;;2.08;;
37931;SDS011;23758;42.640;23.302;2023-12-14T09:45:45;2.10;;;2.00;;
37931;SDS011;23758;42.640;23.302;2023-12-14T09:48:11;2.20;;;2.10;;
37931;SDS011;23758;42.640;23.302;2023-12-14T09:50:38;2.15;;;2.05;;
37931;SDS011;23758;42.640;23.302;2023-12-14T09:53:05;2.10;;;2.00;;
37931;SDS011;23758;42.640;23.302;2023-12-14T09:55:30;2.20;;;2.10;;
37931;SDS011;23758;42.640;23.302;2023-12-14T09:57:56;2.20;;;2.10;;
37931;SDS011;23758;42.640;23.302;2023-12-14T10:05:48;2.00;;;1.90;;
37931;SDS011;23758;42.640;23.302;2023-12-14T10:08:14;2.00;;;1.90;;
37931;SDS011;23758;42.640;23.302;2023-12-14T10:10:41;2.00;;;1.90;;
37931;SDS011;23758;42.640;23.302;2023-12-14T10:13:07;1.90;;;1.80;;
37931;SDS011;23758;42.640;23.302;2023-12-14T10:15:43;2.00;;;1.90;;
37931;SDS011;23758;42.640;23.302;2023-12-14T10:18:09;2.10;;;2.00;;
37931;SDS011;23758;42.640;23.302;2023-12-14T10:20:35;5.78;;;2.20;;
37931;SDS011;23758;42.640;23.302;2023-12-14T10:23:02;2.15;;;2.05;;
37931;SDS011;23758;42.640;23.302;2023-12-14T10:25:32;2.00;;;1.90;;
37931;SDS011;23758;42.640;23.302;2023-12-14T10:27:58;2.10;;;2.00;;
37931;SDS011;23758;42.640;23.302;2023-12-14T10:30:25;2.00;;;1.90;;
37931;SDS011;23758;42.640;23.302;2023-12-14T10:32:50;2.10;;;2.00;;
37931;SDS011;23758;42.640;23.302;2023-12-14T10:35:16;2.13;;;2.03;;
37931;SDS011;23758;42.640;23.302;2023-12-14T10:37:42;1.90;;;1.80;;
37931;SDS011;23758;42.640;23.302;2023-12-14T10:40:11;2.20;;;2.10;;
37931;SDS011;23758;42.640;23.302;2023-12-14T10:42:39;2.10;;;2.00;;
37931;SDS011;23758;42.640;23.302;2023-12-14T10:45:07;2.20;;;2.10;;
37931;SDS011;23758;42.640;23.302;2023-12-14T10:47:36;2.42;;;2.22;;
37931;SDS011;23758;42.640;23.302;2023-12-14T10:50:02;3.05;;;2.58;;
37931;SDS011;23758;42.640;23.302;2023-12-14T10:52:29;2.15;;;2.05;;
37931;SDS011;23758;42.640;23.302;2023-12-14T10:54:59;2.20;;;2.10;;
37931;SDS011;23758;42.640;23.302;2023-12-14T10:57:28;2.63;;;2.42;;
37931;SDS011;23758;42.640;23.302;2023-12-14T11:00:00;2.30;;;2.20;;
37931;SDS011;23758;42.640;23.302;2023-12-14T11:02:26;2.22;;;2.13;;
37931;SDS011;23758;42.640;23.302;2023-12-14T11:07:44;2.70;;;2.50;;
37931;SDS011;23758;42.640;23.302;2023-12-14T11:10:12;2.20;;;2.10;;
37931;SDS011;23758;42.640;23.302;2023-12-14T11:12:49;2.58;;;2.38;;
37931;SDS011;23758;42.640;23.302;2023-12-14T11:15:17;2.20;;;2.10;;
37931;SDS011;23758;42.640;23.302;2023-12-14T11:23:35;2.50;;;2.30;;
37931;SDS011;23758;42.640;23.302;2023-12-14T11:26:11;2.30;;;2.20;;
37931;SDS011;23758;42.640;23.302;2023-12-14T11:28:37;2.28;;;2.17;;
37931;SDS011;23758;42.640;23.302;2023-12-14T11:31:09;2.20;;;2.10;;
37931;SDS011;23758;42.640;23.302;2023-12-14T11:33:35;2.38;;;2.28;;
37931;SDS011;23758;42.640;23.302;2023-12-14T11:36:01;2.25;;;2.15;;
37931;SDS011;23758;42.640;23.302;2023-12-14T11:38:31;2.30;;;2.20;;
37931;SDS011;23758;42.640;23.302;2023-12-14T11:40:57;2.40;;;2.30;;
37931;SDS011;23758;42.640;23.302;2023-12-14T11:43:23;2.30;;;2.20;;
37931;SDS011;23758;42.640;23.302;2023-12-14T11:45:51;2.75;;;2.55;;
37931;SDS011;23758;42.640;23.302;2023-12-14T11:48:17;2.38;;;2.28;;
37931;SDS011;23758;42.640;23.302;2023-12-14T11:50:44;2.67;;;2.47;;
37931;SDS011;23758;42.640;23.302;2023-12-14T11:53:10;2.30;;;2.20;;
37931;SDS011;23758;42.640;23.302;2023-12-14T11:55:37;2.58;;;2.38;;
37931;SDS011;23758;42.640;23.302;2023-12-14T11:58:04;2.88;;;2.63;;
37931;SDS011;23758;42.640;23.302;2023-12-14T12:00:30;2.63;;;2.42;;
37931;SDS011;23758;42.640;23.302;2023-12-14T12:05:47;2.30;;;2.20;;
37931;SDS011;23758;42.640;23.302;2023-12-14T12:08:17;2.30;;;2.20;;
37931;SDS011;23758;42.640;23.302;2023-12-14T12:10:44;2.30;;;2.20;;
37931;SDS011;23758;42.640;23.302;2023-12-14T12:13:15;2.20;;;2.10;;
37931;SDS011;23758;42.640;23.302;2023-12-14T12:18:11;2.30;;;2.20;;
37931;SDS011;23758;42.640;23.302;2023-12-14T12:20:37;2.20;;;2.10;;
37931;SDS011;23758;42.640;23.302;2023-12-14T12:23:03;2.20;;;2.10;;
37931;SDS011;23758;42.640;23.302;2023-12-14T12:25:29;2.20;;;2.10;;
37931;SDS011;23758;42.640;23.302;2023-12-14T12:27:55;2.20;;;2.10;;
37931;SDS011;23758;42.640;23.302;2023-12-14T12:30:21;2.20;;;2.10;;
37931;SDS011;23758;42.640;23.302;2023-12-14T12:32:48;2.20;;;2.10;;
37931;SDS011;23758;42.640;23.302;2023-12-14T12:35:13;2.20;;;2.10;;
37931;SDS011;23758;42.640;23.302;2023-12-14T12:37:39;2.20;;;2.10;;
37931;SDS011;23758;42.640;23.302;2023-12-14T12:40:05;2.20;;;2.10;;
37931;SDS011;23758;42.640;23.302;2023-12-14T12:42:31;2.10;;;2.00;;
37931;SDS011;23758;42.640;23.302;2023-12-14T12:44:56;2.28;;;2.17;;
37931;SDS011;23758;42.640;23.302;2023-12-14T12:47:22;2.42;;;2.33;;
37931;SDS011;23758;42.640;23.302;2023-12-14T12:49:47;2.30;;;2.20;;
37931;SDS011;23758;42.640;23.302;2023-12-14T12:52:13;2.40;;;2.30;;
37931;SDS011;23758;42.640;23.302;2023-12-14T12:54:38;2.20;;;2.10;;
37931;SDS011;23758;42.640;23.302;2023-12-14T12:57:04;2.30;;;2.20;;
37931;SDS011;23758;42.640;23.302;2023-12-14T12:59:30;2.20;;;2.10;;
37931;SDS011;23758;42.640;23.302;2023-12-14T13:01:55;2.30;;;2.20;;
37931;SDS011;23758;42.640;23.302;2023-12-14T13:04:21;2.20;;;2.10;;
37931;SDS011;23758;42.640;23.302;2023-12-14T13:06:47;2.47;;;2.38;;
37931;SDS011;23758;42.640;23.302;2023-12-14T13:09:13;2.30;;;2.20;;
37931;SDS011;23758;42.640;23.302;2023-12-14T13:11:39;2.50;;;2.40;;
37931;SDS011;23758;42.640;23.302;2023-12-14T13:14:05;2.20;;;2.10;;
37931;SDS011;23758;42.640;23.302;2023-12-14T13:16:33;2.40;;;2.30;;
37931;SDS011;23758;42.640;23.302;2023-12-14T13:18:59;2.30;;;2.20;;
37931;SDS011;23758;42.640;23.302;2023-12-14T13:21:24;2.30;;;2.20;;
37931;SDS011;23758;42.640;23.302;2023-12-14T13:23:50;2.40;;;2.30;;
37931;SDS011;23758;42.640;23.302;2023-12-14T13:26:16;2.30;;;2.20;;
37931;SDS011;23758;42.640;23.302;2023-12-14T13:28:41;2.40;;;2.30;;
37931;SDS011;23758;42.640;23.302;2023-12-14T13:31:07;2.40;;;2.30;;
37931;SDS011;23758;42.640;23.302;2023-12-14T13:33:32;2.38;;;2.28;;
37931;SDS011;23758;42.640;23.302;2023-12-14T13:35:58;2.40;;;2.30;;
37931;SDS011;23758;42.640;23.302;2023-12-14T13:38:23;2.40;;;2.30;;
37931;SDS011;23758;42.640;23.302;2023-12-14T13:40:49;2.30;;;2.20;;
37931;SDS011;23758;42.640;23.302;2023-12-14T13:43:15;2.75;;;2.55;;
37931;SDS011;23758;42.640;23.302;2023-12-14T13:45:40;2.28;;;2.17;;
37931;SDS011;23758;42.640;23.302;2023-12-14T13:48:08;2.40;;;2.30;;
37931;SDS011;23758;42.640;23.302;2023-12-14T13:50:33;2.50;;;2.40;;
37931;SDS011;23758;42.640;23.302;2023-12-14T13:52:59;2.40;;;2.30;;
37931;SDS011;23758;42.640;23.302;2023-12-14T13:55:26;2.55;;;2.42;;
37931;SDS011;23758;42.640;23.302;2023-12-14T13:57:51;2.40;;;2.30;;
37931;SDS011;23758;42.640;23.302;2023-12-14T14:00:16;2.30;;;2.20;;
37931;SDS011;23758;42.640;23.302;2023-12-14T14:02:44;2.40;;;2.30;;
37931;SDS011;23758;42.640;23.302;2023-12-14T14:05:09;2.90;;;2.70;;
37931;SDS011;23758;42.640;23.302;2023-12-14T14:07:35;2.50;;;2.40;;
37931;SDS011;23758;42.640;23.302;2023-12-14T14:10:14;2.40;;;2.30;;
37931;SDS011;23758;42.640;23.302;2023-12-14T14:12:39;2.50;;;2.40;;
37931;SDS011;23758;42.640;23.302;2023-12-14T14:15:05;2.30;;;2.20;;
37931;SDS011;23758;42.640;23.302;2023-12-14T14:17:31;2.30;;;2.20;;
37931;SDS011;23758;42.640;23.302;2023-12-14T14:19:57;2.40;;;2.30;;
37931;SDS011;23758;42.640;23.302;2023-12-14T14:22:22;2.40;;;2.30;;
37931;SDS011;23758;42.640;23.302;2023-12-14T14:24:48;2.35;;;2.25;;
37931;SDS011;23758;42.640;23.302;2023-12-14T14:27:13;2.40;;;2.30;;
37931;SDS011;23758;42.640;23.302;2023-12-14T14:29:39;2.40;;;2.30;;
37931;SDS011;23758;42.640;23.302;2023-12-14T14:32:04;2.30;;;2.20;;
37931;SDS011;23758;42.640;23.302;2023-12-14T14:34:30;2.38;;;2.28;;
37931;SDS011;23758;42.640;23.302;2023-12-14T14:36:55;2.55;;;2.40;;
37931;SDS011;23758;42.640;23.302;2023-12-14T14:39:21;2.40;;;2.30;;
37931;SDS011;23758;42.640;23.302;2023-12-14T14:41:46;2.40;;;2.30;;
37931;SDS011;23758;42.640;23.302;2023-12-14T14:44:12;2.30;;;2.20;;
37931;SDS011;23758;42.640;23.302;2023-12-14T14:46:37;2.50;;;2.40;;
37931;SDS011;23758;42.640;23.302;2023-12-14T14:49:03;2.58;;;2.40;;